sensor_id;sensor_type;location;lat;lon;timestamp;temperature;humidity
27890;DHT22;15238;49.082;9.102;2023-08-30T00:00:42;14.20;99.90
27890;DHT22;15238;49.082;9.102;2023-08-30T00:02:43;14.20;99.90
27890;DHT22;15238;49.082;9.102;2023-08-30T00:04:43;14.10;99.90
27890;DHT22;15238;49.082;9.102;2023-08-30T00:06:44;14.10;99.90
27890;DHT22;15238;49.082;9.102;2023-08-30T00:08:44;14.00;99.90
27890;DHT22;15238;49.082;9.102;2023-08-30T00:10:45;14.00;99.90
27890;DHT22;15238;49.082;9.102;2023-08-30T00:12:46;14.00;99.90
27890;DHT22;15238;49.082;9.102;2023-08-30T00:14:46;13.90;99.90
27890;DHT22;15238;49.082;9.102;2023-08-30T00:16:47;13.90;99.90
27890;DHT22;15238;49.082;9.102;2023-08-30T00:18:47;13.90;99.90
27890;DHT22;15238;49.082;9.102;2023-08-30T00:20:48;13.90;99.90
27890;DHT22;15238;49.082;9.102;2023-08-30T00:22:48;14.00;99.90
27890;DHT22;15238;49.082;9.102;2023-08-30T00:24:49;13.90;99.90
27890;DHT22;15238;49.082;9.102;2023-08-30T00:26:49;13.90;99.90
27890;DHT22;15238;49.082;9.102;2023-08-30T00:28:50;13.90;99.90
27890;DHT22;15238;49.082;9.102;2023-08-30T00:30:54;13.90;99.90
27890;DHT22;15238;49.082;9.102;2023-08-30T00:32:55;13.90;99.90
27890;DHT22;15238;49.082;9.102;2023-08-30T00:34:55;13.80;99.90
27890;DHT22;15238;49.082;9.102;2023-08-30T00:36:56;13.80;99.90
27890;DHT22;15238;49.082;9.102;2023-08-30T00:38:56;13.80;99.90
27890;DHT22;15238;49.082;9.102;2023-08-30T00:40:57;13.70;99.90
27890;DHT22;15238;49.082;9.102;2023-08-30T00:42:57;13.70;99.90
27890;DHT22;15238;49.082;9.102;2023-08-30T00:44:58;13.60;99.90
27890;DHT22;15238;49.082;9.102;2023-08-30T00:46:59;13.60;99.90
27890;DHT22;15238;49.082;9.102;2023-08-30T00:49:00;13.60;99.90
27890;DHT22;15238;49.082;9.102;2023-08-30T00:51:01;13.60;99.90
27890;DHT22;15238;49.082;9.102;2023-08-30T00:53:03;13.60;99.90
27890;DHT22;15238;49.082;9.102;2023-08-30T00:55:06;13.60;99.90
27890;DHT22;15238;49.082;9.102;2023-08-30T00:57:07;13.50;99.90
27890;DHT22;15238;49.082;9.102;2023-08-30T00:59:08;13.50;99.90
27890;DHT22;15238;49.082;9.102;2023-08-30T01:01:09;13.50;99.90
27890;DHT22;15238;49.082;9.102;2023-08-30T01:03:09;13.50;99.90
27890;DHT22;15238;49.082;9.102;2023-08-30T01:05:10;13.40;99.90
27890;DHT22;15238;49.082;9.102;2023-08-30T01:07:10;13.40;99.90
27890;DHT22;15238;49.082;9.102;2023-08-30T01:09:11;13.40;99.90
27890;DHT22;15238;49.082;9.102;2023-08-30T01:11:39;13.40;99.90
27890;DHT22;15238;49.082;9.102;2023-08-30T01:13:44;13.40;99.90
27890;DHT22;15238;49.082;9.102;2023-08-30T01:15:48;13.40;99.90
27890;DHT22;15238;49.082;9.102;2023-08-30T01:17:52;13.40;99.90
27890;DHT22;15238;49.082;9.102;2023-08-30T01:19:59;13.30;99.90
27890;DHT22;15238;49.082;9.102;2023-08-30T01:22:14;13.30;99.90
27890;DHT22;15238;49.082;9.102;2023-08-30T01:24:47;13.30;99.90
27890;DHT22;15238;49.082;9.102;2023-08-30T01:27:11;13.20;99.90
27890;DHT22;15238;49.082;9.102;2023-08-30T01:29:12;13.30;99.90
27890;DHT22;15238;49.082;9.102;2023-08-30T01:31:16;13.30;99.90
27890;DHT22;15238;49.082;9.102;2023-08-30T01:33:17;13.20;99.90
27890;DHT22;15238;49.082;9.102;2023-08-30T01:35:19;13.20;99.90
27890;DHT22;15238;49.082;9.102;2023-08-30T01:37:20;13.20;99.90
27890;DHT22;15238;49.082;9.102;2023-08-30T01:39:22;13.10;99.90
27890;DHT22;15238;49.082;9.102;2023-08-30T01:41:25;13.20;99.90
27890;DHT22;15238;49.082;9.102;2023-08-30T01:43:29;13.10;99.90
27890;DHT22;15238;49.082;9.102;2023-08-30T01:45:31;13.10;99.90
27890;DHT22;15238;49.082;9.102;2023-08-30T01:47:32;13.10;99.90
27890;DHT22;15238;49.082;9.102;2023-08-30T01:49:34;13.10;99.90
27890;DHT22;15238;49.082;9.102;2023-08-30T01:51:37;13.10;99.90
27890;DHT22;15238;49.082;9.102;2023-08-30T01:53:38;13.00;99.90
27890;DHT22;15238;49.082;9.102;2023-08-30T01:55:39;13.00;99.90
27890;DHT22;15238;49.082;9.102;2023-08-30T01:57:41;13.00;99.90
27890;DHT22;15238;49.082;9.102;2023-08-30T01:59:41;12.90;99.90
27890;DHT22;15238;49.082;9.102;2023-08-30T02:01:42;12.90;99.90
27890;DHT22;15238;49.082;9.102;2023-08-30T02:03:45;12.90;99.90
27890;DHT22;15238;49.082;9.102;2023-08-30T02:06:06;12.90;99.90
27890;DHT22;15238;49.082;9.102;2023-08-30T02:08:16;12.80;99.90
27890;DHT22;15238;49.082;9.102;2023-08-30T02:10:22;12.90;99.90
27890;DHT22;15238;49.082;9.102;2023-08-30T02:12:24;12.80;99.90
27890;DHT22;15238;49.082;9.102;2023-08-30T02:14:28;12.90;99.90
27890;DHT22;15238;49.082;9.102;2023-08-30T02:16:30;12.80;99.90
27890;DHT22;15238;49.082;9.102;2023-08-30T02:18:31;12.80;99.90
27890;DHT22;15238;49.082;9.102;2023-08-30T02:20:32;12.80;99.90
27890;DHT22;15238;49.082;9.102;2023-08-30T02:22:33;12.80;99.90
27890;DHT22;15238;49.082;9.102;2023-08-30T02:24:34;12.80;99.90
27890;DHT22;15238;49.082;9.102;2023-08-30T02:26:34;12.80;99.90
27890;DHT22;15238;49.082;9.102;2023-08-30T02:28:35;12.80;99.90
27890;DHT22;15238;49.082;9.102;2023-08-30T02:30:35;12.80;99.90
27890;DHT22;15238;49.082;9.102;2023-08-30T02:32:36;12.80;99.90
27890;DHT22;15238;49.082;9.102;2023-08-30T02:34:36;12.80;99.90
27890;DHT22;15238;49.082;9.102;2023-08-30T02:36:37;12.80;99.90
27890;DHT22;15238;49.082;9.102;2023-08-30T02:38:38;12.70;99.90
27890;DHT22;15238;49.082;9.102;2023-08-30T02:40:38;12.80;99.90
27890;DHT22;15238;49.082;9.102;2023-08-30T02:42:38;12.70;99.90
27890;DHT22;15238;49.082;9.102;2023-08-30T02:44:39;12.80;99.90
27890;DHT22;15238;49.082;9.102;2023-08-30T02:46:39;12.80;99.90
27890;DHT22;15238;49.082;9.102;2023-08-30T02:48:41;12.80;99.90
27890;DHT22;15238;49.082;9.102;2023-08-30T02:50:42;12.90;99.90
27890;DHT22;15238;49.082;9.102;2023-08-30T02:52:42;12.90;99.90
27890;DHT22;15238;49.082;9.102;2023-08-30T02:54:43;12.90;99.90
27890;DHT22;15238;49.082;9.102;2023-08-30T02:56:44;12.90;99.90
27890;DHT22;15238;49.082;9.102;2023-08-30T02:58:45;12.90;99.90
27890;DHT22;15238;49.082;9.102;2023-08-30T03:00:45;12.90;99.90
27890;DHT22;15238;49.082;9.102;2023-08-30T03:02:46;13.00;99.90
27890;DHT22;15238;49.082;9.102;2023-08-30T03:04:46;13.00;99.90
27890;DHT22;15238;49.082;9.102;2023-08-30T03:06:47;13.00;99.90
27890;DHT22;15238;49.082;9.102;2023-08-30T03:08:47;13.10;99.90
27890;DHT22;15238;49.082;9.102;2023-08-30T03:10:48;13.10;99.90
27890;DHT22;15238;49.082;9.102;2023-08-30T03:12:48;13.10;99.90
27890;DHT22;15238;49.082;9.102;2023-08-30T03:14:49;13.10;99.90
27890;DHT22;15238;49.082;9.102;2023-08-30T03:16:49;13.20;99.90
27890;DHT22;15238;49.082;9.102;2023-08-30T03:18:50;13.20;99.90
27890;DHT22;15238;49.082;9.102;2023-08-30T03:21:00;13.20;99.90
27890;DHT22;15238;49.082;9.102;2023-08-30T03:23:02;13.30;99.90
27890;DHT22;15238;49.082;9.102;2023-08-30T03:25:02;13.30;99.90
27890;DHT22;15238;49.082;9.102;2023-08-30T03:27:04;13.40;99.90
27890;DHT22;15238;49.082;9.102;2023-08-30T03:29:04;13.40;99.90
27890;DHT22;15238;49.082;9.102;2023-08-30T03:31:18;13.40;99.90
27890;DHT22;15238;49.082;9.102;2023-08-30T03:33:19;13.40;99.90
27890;DHT22;15238;49.082;9.102;2023-08-30T03:35:20;13.40;99.90
27890;DHT22;15238;49.082;9.102;2023-08-30T03:37:21;13.50;99.90
27890;DHT22;15238;49.082;9.102;2023-08-30T03:39:22;13.50;99.90
27890;DHT22;15238;49.082;9.102;2023-08-30T03:41:24;13.50;99.90
27890;DHT22;15238;49.082;9.102;2023-08-30T03:43:24;13.50;99.90
27890;DHT22;15238;49.082;9.102;2023-08-30T03:45:25;13.50;99.90
27890;DHT22;15238;49.082;9.102;2023-08-30T03:47:25;13.50;99.90
27890;DHT22;15238;49.082;9.102;2023-08-30T03:49:26;13.50;99.90
27890;DHT22;15238;49.082;9.102;2023-08-30T03:51:26;13.40;99.90
27890;DHT22;15238;49.082;9.102;2023-08-30T03:53:27;13.50;99.90
27890;DHT22;15238;49.082;9.102;2023-08-30T03:55:27;13.50;99.90
27890;DHT22;15238;49.082;9.102;2023-08-30T03:57:28;13.50;99.90
27890;DHT22;15238;49.082;9.102;2023-08-30T03:59:28;13.50;99.90
27890;DHT22;15238;49.082;9.102;2023-08-30T04:01:29;13.50;99.90
27890;DHT22;15238;49.082;9.102;2023-08-30T04:03:29;13.60;99.90
27890;DHT22;15238;49.082;9.102;2023-08-30T04:05:36;13.50;99.90
27890;DHT22;15238;49.082;9.102;2023-08-30T04:07:37;13.50;99.90
27890;DHT22;15238;49.082;9.102;2023-08-30T04:09:37;13.50;99.90
27890;DHT22;15238;49.082;9.102;2023-08-30T04:11:39;13.50;99.90
27890;DHT22;15238;49.082;9.102;2023-08-30T04:13:39;13.50;99.90
27890;DHT22;15238;49.082;9.102;2023-08-30T04:15:40;13.50;99.90
27890;DHT22;15238;49.082;9.102;2023-08-30T04:17:40;13.50;99.90
27890;DHT22;15238;49.082;9.102;2023-08-30T04:19:41;13.50;99.90
27890;DHT22;15238;49.082;9.102;2023-08-30T04:21:41;13.50;99.90
27890;DHT22;15238;49.082;9.102;2023-08-30T04:23:42;13.50;99.90
27890;DHT22;15238;49.082;9.102;2023-08-30T04:25:44;13.60;99.90
27890;DHT22;15238;49.082;9.102;2023-08-30T04:27:44;13.50;99.90
27890;DHT22;15238;49.082;9.102;2023-08-30T04:29:45;13.50;99.90
27890;DHT22;15238;49.082;9.102;2023-08-30T04:31:45;13.50;99.90
27890;DHT22;15238;49.082;9.102;2023-08-30T04:33:46;13.50;99.90
27890;DHT22;15238;49.082;9.102;2023-08-30T04:35:53;13.50;99.90
27890;DHT22;15238;49.082;9.102;2023-08-30T04:37:54;13.50;99.90
27890;DHT22;15238;49.082;9.102;2023-08-30T04:39:55;13.50;99.90
27890;DHT22;15238;49.082;9.102;2023-08-30T04:41:55;13.50;99.90
27890;DHT22;15238;49.082;9.102;2023-08-30T04:43:56;13.50;99.90
27890;DHT22;15238;49.082;9.102;2023-08-30T04:45:57;13.50;99.90
27890;DHT22;15238;49.082;9.102;2023-08-30T04:47:57;13.50;99.90
27890;DHT22;15238;49.082;9.102;2023-08-30T04:49:58;13.50;99.90
27890;DHT22;15238;49.082;9.102;2023-08-30T04:51:58;13.60;99.90
27890;DHT22;15238;49.082;9.102;2023-08-30T04:53:59;13.60;99.90
27890;DHT22;15238;49.082;9.102;2023-08-30T04:55:59;13.60;99.90
27890;DHT22;15238;49.082;9.102;2023-08-30T04:58:00;13.60;99.90
27890;DHT22;15238;49.082;9.102;2023-08-30T05:00:01;13.60;99.90
27890;DHT22;15238;49.082;9.102;2023-08-30T05:02:04;13.60;99.90
27890;DHT22;15238;49.082;9.102;2023-08-30T05:04:05;13.70;99.90
27890;DHT22;15238;49.082;9.102;2023-08-30T05:06:06;13.70;99.90
27890;DHT22;15238;49.082;9.102;2023-08-30T05:08:06;13.70;99.90
27890;DHT22;15238;49.082;9.102;2023-08-30T05:10:08;13.70;99.90
27890;DHT22;15238;49.082;9.102;2023-08-30T05:12:08;13.70;99.90
27890;DHT22;15238;49.082;9.102;2023-08-30T05:14:09;13.70;99.90
27890;DHT22;15238;49.082;9.102;2023-08-30T05:16:13;13.70;99.90
27890;DHT22;15238;49.082;9.102;2023-08-30T05:18:13;13.80;99.90
27890;DHT22;15238;49.082;9.102;2023-08-30T05:20:14;13.80;99.90
27890;DHT22;15238;49.082;9.102;2023-08-30T05:22:14;13.80;99.90
27890;DHT22;15238;49.082;9.102;2023-08-30T05:24:15;13.90;99.90
27890;DHT22;15238;49.082;9.102;2023-08-30T05:26:15;13.90;99.90
27890;DHT22;15238;49.082;9.102;2023-08-30T05:28:17;13.90;99.90
27890;DHT22;15238;49.082;9.102;2023-08-30T05:30:17;13.90;99.90
27890;DHT22;15238;49.082;9.102;2023-08-30T05:32:18;13.90;99.90
27890;DHT22;15238;49.082;9.102;2023-08-30T05:34:18;13.90;99.90
27890;DHT22;15238;49.082;9.102;2023-08-30T05:36:19;13.90;99.90
27890;DHT22;15238;49.082;9.102;2023-08-30T05:38:19;13.90;99.90
27890;DHT22;15238;49.082;9.102;2023-08-30T05:40:20;13.90;99.90
27890;DHT22;15238;49.082;9.102;2023-08-30T05:42:20;13.90;99.90
27890;DHT22;15238;49.082;9.102;2023-08-30T05:44:21;13.90;99.90
27890;DHT22;15238;49.082;9.102;2023-08-30T05:46:21;13.90;99.90
27890;DHT22;15238;49.082;9.102;2023-08-30T05:48:22;14.00;99.90
27890;DHT22;15238;49.082;9.102;2023-08-30T05:50:22;14.00;99.90
27890;DHT22;15238;49.082;9.102;2023-08-30T05:52:23;14.10;99.90
27890;DHT22;15238;49.082;9.102;2023-08-30T05:54:25;14.10;99.90
27890;DHT22;15238;49.082;9.102;2023-08-30T05:56:29;14.20;99.90
27890;DHT22;15238;49.082;9.102;2023-08-30T05:58:30;14.20;99.90
27890;DHT22;15238;49.082;9.102;2023-08-30T06:00:30;14.20;99.90
27890;DHT22;15238;49.082;9.102;2023-08-30T06:02:31;14.30;99.90
27890;DHT22;15238;49.082;9.102;2023-08-30T06:04:31;14.40;99.90
27890;DHT22;15238;49.082;9.102;2023-08-30T06:06:32;14.40;99.90
27890;DHT22;15238;49.082;9.102;2023-08-30T06:08:32;14.40;99.90
27890;DHT22;15238;49.082;9.102;2023-08-30T06:10:33;14.50;99.90
27890;DHT22;15238;49.082;9.102;2023-08-30T06:12:33;14.50;99.90
27890;DHT22;15238;49.082;9.102;2023-08-30T06:14:34;14.40;99.90
27890;DHT22;15238;49.082;9.102;2023-08-30T06:16:34;14.50;99.90
27890;DHT22;15238;49.082;9.102;2023-08-30T06:18:35;14.60;99.90
27890;DHT22;15238;49.082;9.102;2023-08-30T06:20:40;14.60;99.90
27890;DHT22;15238;49.082;9.102;2023-08-30T06:22:41;14.60;99.90
27890;DHT22;15238;49.082;9.102;2023-08-30T06:24:43;14.70;99.90
27890;DHT22;15238;49.082;9.102;2023-08-30T06:26:43;14.70;99.90
27890;DHT22;15238;49.082;9.102;2023-08-30T06:28:44;14.80;99.90
27890;DHT22;15238;49.082;9.102;2023-08-30T06:30:45;14.80;99.90
27890;DHT22;15238;49.082;9.102;2023-08-30T06:32:45;14.90;99.90
27890;DHT22;15238;49.082;9.102;2023-08-30T06:34:45;14.90;99.90
27890;DHT22;15238;49.082;9.102;2023-08-30T06:36:46;15.00;99.90
27890;DHT22;15238;49.082;9.102;2023-08-30T06:38:46;15.00;99.90
27890;DHT22;15238;49.082;9.102;2023-08-30T06:40:47;15.10;99.90
27890;DHT22;15238;49.082;9.102;2023-08-30T06:42:47;15.20;99.90
27890;DHT22;15238;49.082;9.102;2023-08-30T06:44:48;15.30;99.90
27890;DHT22;15238;49.082;9.102;2023-08-30T06:46:48;15.40;99.90
27890;DHT22;15238;49.082;9.102;2023-08-30T06:48:49;15.40;99.90
27890;DHT22;15238;49.082;9.102;2023-08-30T06:50:49;15.50;99.90
27890;DHT22;15238;49.082;9.102;2023-08-30T06:52:50;15.50;99.90
27890;DHT22;15238;49.082;9.102;2023-08-30T06:54:50;15.50;99.90
27890;DHT22;15238;49.082;9.102;2023-08-30T06:57:00;15.50;99.90
27890;DHT22;15238;49.082;9.102;2023-08-30T06:59:01;15.60;99.90
27890;DHT22;15238;49.082;9.102;2023-08-30T07:01:02;15.60;99.90
27890;DHT22;15238;49.082;9.102;2023-08-30T07:03:03;15.80;99.90
27890;DHT22;15238;49.082;9.102;2023-08-30T07:05:04;15.90;99.90
27890;DHT22;15238;49.082;9.102;2023-08-30T07:07:05;16.00;99.90
27890;DHT22;15238;49.082;9.102;2023-08-30T07:09:06;16.10;99.90
27890;DHT22;15238;49.082;9.102;2023-08-30T07:11:06;16.10;99.90
27890;DHT22;15238;49.082;9.102;2023-08-30T07:13:07;16.20;99.90
27890;DHT22;15238;49.082;9.102;2023-08-30T07:15:10;16.30;99.90
27890;DHT22;15238;49.082;9.102;2023-08-30T07:17:11;16.30;99.90
27890;DHT22;15238;49.082;9.102;2023-08-30T07:19:11;16.40;99.90
27890;DHT22;15238;49.082;9.102;2023-08-30T07:21:12;16.50;99.90
27890;DHT22;15238;49.082;9.102;2023-08-30T07:23:12;16.50;99.90
27890;DHT22;15238;49.082;9.102;2023-08-30T07:25:13;16.60;99.90
27890;DHT22;15238;49.082;9.102;2023-08-30T07:27:14;16.60;99.90
27890;DHT22;15238;49.082;9.102;2023-08-30T07:29:14;16.70;99.90
27890;DHT22;15238;49.082;9.102;2023-08-30T07:31:15;16.80;99.90
27890;DHT22;15238;49.082;9.102;2023-08-30T07:33:18;16.80;99.90
27890;DHT22;15238;49.082;9.102;2023-08-30T07:35:19;16.80;99.90
27890;DHT22;15238;49.082;9.102;2023-08-30T07:37:20;16.80;99.90
27890;DHT22;15238;49.082;9.102;2023-08-30T07:39:21;16.90;99.90
27890;DHT22;15238;49.082;9.102;2023-08-30T07:41:21;16.90;99.90
27890;DHT22;15238;49.082;9.102;2023-08-30T07:43:22;16.90;99.90
27890;DHT22;15238;49.082;9.102;2023-08-30T07:45:22;16.90;99.90
27890;DHT22;15238;49.082;9.102;2023-08-30T07:47:23;16.90;99.90
27890;DHT22;15238;49.082;9.102;2023-08-30T07:49:23;16.90;99.90
27890;DHT22;15238;49.082;9.102;2023-08-30T07:51:24;16.90;99.90
27890;DHT22;15238;49.082;9.102;2023-08-30T07:53:24;16.90;99.90
27890;DHT22;15238;49.082;9.102;2023-08-30T07:55:25;16.90;99.90
27890;DHT22;15238;49.082;9.102;2023-08-30T07:57:25;16.80;99.90
27890;DHT22;15238;49.082;9.102;2023-08-30T07:59:26;16.80;99.90
27890;DHT22;15238;49.082;9.102;2023-08-30T08:01:26;16.80;99.90
27890;DHT22;15238;49.082;9.102;2023-08-30T08:03:27;16.70;99.90
27890;DHT22;15238;49.082;9.102;2023-08-30T08:05:27;16.70;99.90
27890;DHT22;15238;49.082;9.102;2023-08-30T08:07:28;16.60;99.90
27890;DHT22;15238;49.082;9.102;2023-08-30T08:09:28;16.60;99.90
27890;DHT22;15238;49.082;9.102;2023-08-30T08:11:29;16.70;99.90
27890;DHT22;15238;49.082;9.102;2023-08-30T08:13:29;16.70;99.90
27890;DHT22;15238;49.082;9.102;2023-08-30T08:15:30;16.90;99.90
27890;DHT22;15238;49.082;9.102;2023-08-30T08:17:31;17.10;99.90
27890;DHT22;15238;49.082;9.102;2023-08-30T08:19:31;17.30;99.90
27890;DHT22;15238;49.082;9.102;2023-08-30T08:21:32;17.40;99.90
27890;DHT22;15238;49.082;9.102;2023-08-30T08:23:32;17.70;99.90
27890;DHT22;15238;49.082;9.102;2023-08-30T08:25:33;17.80;99.90
27890;DHT22;15238;49.082;9.102;2023-08-30T08:27:33;18.00;99.90
27890;DHT22;15238;49.082;9.102;2023-08-30T08:29:34;18.00;99.90
27890;DHT22;15238;49.082;9.102;2023-08-30T08:31:34;18.10;99.90
27890;DHT22;15238;49.082;9.102;2023-08-30T08:33:35;18.20;99.90
27890;DHT22;15238;49.082;9.102;2023-08-30T08:35:36;18.40;99.90
27890;DHT22;15238;49.082;9.102;2023-08-30T08:37:36;18.40;99.90
27890;DHT22;15238;49.082;9.102;2023-08-30T08:39:37;18.40;99.90
27890;DHT22;15238;49.082;9.102;2023-08-30T08:41:40;18.70;99.90
27890;DHT22;15238;49.082;9.102;2023-08-30T08:43:42;18.80;99.90
27890;DHT22;15238;49.082;9.102;2023-08-30T08:45:45;18.80;99.90
27890;DHT22;15238;49.082;9.102;2023-08-30T08:47:46;19.00;99.90
27890;DHT22;15238;49.082;9.102;2023-08-30T08:49:47;19.10;99.90
27890;DHT22;15238;49.082;9.102;2023-08-30T08:51:48;19.20;99.90
27890;DHT22;15238;49.082;9.102;2023-08-30T08:53:49;19.10;99.90
27890;DHT22;15238;49.082;9.102;2023-08-30T08:55:50;19.30;99.90
27890;DHT22;15238;49.082;9.102;2023-08-30T08:57:51;19.40;99.90
27890;DHT22;15238;49.082;9.102;2023-08-30T08:59:55;19.60;99.90
27890;DHT22;15238;49.082;9.102;2023-08-30T09:01:56;19.70;99.90
27890;DHT22;15238;49.082;9.102;2023-08-30T09:03:57;19.70;99.90
27890;DHT22;15238;49.082;9.102;2023-08-30T09:05:58;19.70;99.90
27890;DHT22;15238;49.082;9.102;2023-08-30T09:07:58;19.80;99.90
27890;DHT22;15238;49.082;9.102;2023-08-30T09:10:00;19.90;99.90
27890;DHT22;15238;49.082;9.102;2023-08-30T09:12:01;19.90;99.90
27890;DHT22;15238;49.082;9.102;2023-08-30T09:14:01;19.90;99.90
27890;DHT22;15238;49.082;9.102;2023-08-30T09:16:02;20.00;99.90
27890;DHT22;15238;49.082;9.102;2023-08-30T09:18:03;20.10;99.90
27890;DHT22;15238;49.082;9.102;2023-08-30T09:20:11;20.20;99.90
27890;DHT22;15238;49.082;9.102;2023-08-30T09:22:12;20.20;99.90
27890;DHT22;15238;49.082;9.102;2023-08-30T09:24:13;20.30;99.90
27890;DHT22;15238;49.082;9.102;2023-08-30T09:26:13;20.50;99.90
27890;DHT22;15238;49.082;9.102;2023-08-30T09:28:13;20.30;99.90
27890;DHT22;15238;49.082;9.102;2023-08-30T09:30:14;20.30;99.90
27890;DHT22;15238;49.082;9.102;2023-08-30T09:32:21;20.50;99.90
27890;DHT22;15238;49.082;9.102;2023-08-30T09:34:25;20.50;99.90
27890;DHT22;15238;49.082;9.102;2023-08-30T09:36:26;20.30;99.90
27890;DHT22;15238;49.082;9.102;2023-08-30T09:38:26;20.20;99.90
27890;DHT22;15238;49.082;9.102;2023-08-30T09:40:27;20.10;99.90
27890;DHT22;15238;49.082;9.102;2023-08-30T09:42:28;20.20;99.90
27890;DHT22;15238;49.082;9.102;2023-08-30T09:44:29;20.20;99.90
27890;DHT22;15238;49.082;9.102;2023-08-30T09:46:30;20.30;99.90
27890;DHT22;15238;49.082;9.102;2023-08-30T09:48:31;20.30;99.90
27890;DHT22;15238;49.082;9.102;2023-08-30T09:50:36;20.50;99.90
27890;DHT22;15238;49.082;9.102;2023-08-30T09:52:37;20.60;99.90
27890;DHT22;15238;49.082;9.102;2023-08-30T09:54:39;20.50;99.90
27890;DHT22;15238;49.082;9.102;2023-08-30T09:56:42;20.50;99.90
27890;DHT22;15238;49.082;9.102;2023-08-30T09:58:44;20.30;99.90
27890;DHT22;15238;49.082;9.102;2023-08-30T10:00:45;20.20;99.90
27890;DHT22;15238;49.082;9.102;2023-08-30T10:02:47;20.30;99.90
27890;DHT22;15238;49.082;9.102;2023-08-30T10:04:48;20.40;99.90
27890;DHT22;15238;49.082;9.102;2023-08-30T10:06:50;20.50;99.90
27890;DHT22;15238;49.082;9.102;2023-08-30T10:08:52;20.60;99.90
27890;DHT22;15238;49.082;9.102;2023-08-30T10:10:53;20.50;99.90
27890;DHT22;15238;49.082;9.102;2023-08-30T10:12:55;20.50;99.90
27890;DHT22;15238;49.082;9.102;2023-08-30T10:14:57;20.50;99.90
27890;DHT22;15238;49.082;9.102;2023-08-30T10:17:04;20.70;99.90
27890;DHT22;15238;49.082;9.102;2023-08-30T10:19:09;20.80;99.90
27890;DHT22;15238;49.082;9.102;2023-08-30T10:21:12;20.70;99.90
27890;DHT22;15238;49.082;9.102;2023-08-30T10:23:14;20.20;99.90
27890;DHT22;15238;49.082;9.102;2023-08-30T10:25:22;20.20;99.90
27890;DHT22;15238;49.082;9.102;2023-08-30T10:27:26;20.30;99.90
27890;DHT22;15238;49.082;9.102;2023-08-30T10:29:28;20.50;99.90
27890;DHT22;15238;49.082;9.102;2023-08-30T10:31:28;20.50;99.90
27890;DHT22;15238;49.082;9.102;2023-08-30T10:33:29;20.40;99.90
27890;DHT22;15238;49.082;9.102;2023-08-30T10:35:30;20.40;99.90
27890;DHT22;15238;49.082;9.102;2023-08-30T10:37:30;20.20;99.90
27890;DHT22;15238;49.082;9.102;2023-08-30T10:39:40;20.00;99.90
27890;DHT22;15238;49.082;9.102;2023-08-30T10:41:55;19.90;99.90
27890;DHT22;15238;49.082;9.102;2023-08-30T10:43:56;20.00;99.90
27890;DHT22;15238;49.082;9.102;2023-08-30T10:46:04;19.90;99.90
27890;DHT22;15238;49.082;9.102;2023-08-30T10:48:05;19.70;99.90
27890;DHT22;15238;49.082;9.102;2023-08-30T10:50:07;19.60;99.90
27890;DHT22;15238;49.082;9.102;2023-08-30T10:52:11;20.00;99.90
27890;DHT22;15238;49.082;9.102;2023-08-30T10:54:13;20.40;99.90
27890;DHT22;15238;49.082;9.102;2023-08-30T10:56:14;20.60;99.90
27890;DHT22;15238;49.082;9.102;2023-08-30T10:58:15;20.50;99.90
27890;DHT22;15238;49.082;9.102;2023-08-30T11:00:20;20.60;99.90
27890;DHT22;15238;49.082;9.102;2023-08-30T11:02:21;20.50;99.90
27890;DHT22;15238;49.082;9.102;2023-08-30T11:04:22;20.50;99.90
27890;DHT22;15238;49.082;9.102;2023-08-30T11:06:23;20.50;99.90
27890;DHT22;15238;49.082;9.102;2023-08-30T11:08:23;20.50;99.90
27890;DHT22;15238;49.082;9.102;2023-08-30T11:10:24;20.60;99.90
27890;DHT22;15238;49.082;9.102;2023-08-30T11:12:25;20.60;99.90
27890;DHT22;15238;49.082;9.102;2023-08-30T11:14:26;20.60;99.90
27890;DHT22;15238;49.082;9.102;2023-08-30T11:16:26;20.60;99.90
27890;DHT22;15238;49.082;9.102;2023-08-30T11:18:27;20.60;99.90
27890;DHT22;15238;49.082;9.102;2023-08-30T11:20:27;20.70;99.90
27890;DHT22;15238;49.082;9.102;2023-08-30T11:22:28;20.90;99.90
27890;DHT22;15238;49.082;9.102;2023-08-30T11:24:29;21.00;99.90
27890;DHT22;15238;49.082;9.102;2023-08-30T11:26:29;21.00;99.90
27890;DHT22;15238;49.082;9.102;2023-08-30T11:28:30;21.10;99.90
27890;DHT22;15238;49.082;9.102;2023-08-30T11:30:30;20.60;99.90
27890;DHT22;15238;49.082;9.102;2023-08-30T11:32:41;20.40;99.90
27890;DHT22;15238;49.082;9.102;2023-08-30T11:34:44;20.60;99.90
27890;DHT22;15238;49.082;9.102;2023-08-30T11:36:55;20.60;99.90
27890;DHT22;15238;49.082;9.102;2023-08-30T11:38:56;20.80;99.90
27890;DHT22;15238;49.082;9.102;2023-08-30T11:40:56;21.10;99.90
27890;DHT22;15238;49.082;9.102;2023-08-30T11:42:57;20.90;99.90
27890;DHT22;15238;49.082;9.102;2023-08-30T11:45:01;20.80;99.90
27890;DHT22;15238;49.082;9.102;2023-08-30T11:47:02;20.70;99.90
27890;DHT22;15238;49.082;9.102;2023-08-30T11:49:03;21.00;99.90
27890;DHT22;15238;49.082;9.102;2023-08-30T11:51:04;21.30;99.90
27890;DHT22;15238;49.082;9.102;2023-08-30T11:53:04;21.30;99.90
27890;DHT22;15238;49.082;9.102;2023-08-30T11:55:05;21.60;99.90
27890;DHT22;15238;49.082;9.102;2023-08-30T11:57:08;21.80;99.90
27890;DHT22;15238;49.082;9.102;2023-08-30T11:59:18;21.90;99.90
27890;DHT22;15238;49.082;9.102;2023-08-30T12:01:19;21.70;99.90
27890;DHT22;15238;49.082;9.102;2023-08-30T12:03:20;21.70;99.90
27890;DHT22;15238;49.082;9.102;2023-08-30T12:05:20;21.60;99.90
27890;DHT22;15238;49.082;9.102;2023-08-30T12:07:26;21.40;99.90
27890;DHT22;15238;49.082;9.102;2023-08-30T12:09:30;21.30;99.90
27890;DHT22;15238;49.082;9.102;2023-08-30T12:11:31;21.50;99.90
27890;DHT22;15238;49.082;9.102;2023-08-30T12:13:33;21.70;99.90
27890;DHT22;15238;49.082;9.102;2023-08-30T12:15:34;22.00;99.90
27890;DHT22;15238;49.082;9.102;2023-08-30T12:17:35;21.90;99.90
27890;DHT22;15238;49.082;9.102;2023-08-30T12:19:35;21.80;99.90
27890;DHT22;15238;49.082;9.102;2023-08-30T12:21:41;21.60;99.90
27890;DHT22;15238;49.082;9.102;2023-08-30T12:23:42;21.20;99.90
27890;DHT22;15238;49.082;9.102;2023-08-30T12:25:42;21.20;99.90
27890;DHT22;15238;49.082;9.102;2023-08-30T12:27:43;21.50;99.90
27890;DHT22;15238;49.082;9.102;2023-08-30T12:29:43;21.60;99.90
27890;DHT22;15238;49.082;9.102;2023-08-30T12:31:44;21.60;99.90
27890;DHT22;15238;49.082;9.102;2023-08-30T12:33:44;21.60;99.90
27890;DHT22;15238;49.082;9.102;2023-08-30T12:35:45;21.70;99.90
27890;DHT22;15238;49.082;9.102;2023-08-30T12:37:46;21.80;99.90
27890;DHT22;15238;49.082;9.102;2023-08-30T12:39:46;22.00;99.90
27890;DHT22;15238;49.082;9.102;2023-08-30T12:41:46;22.10;99.90
27890;DHT22;15238;49.082;9.102;2023-08-30T12:43:47;22.30;99.90
27890;DHT22;15238;49.082;9.102;2023-08-30T12:45:48;22.30;99.90
27890;DHT22;15238;49.082;9.102;2023-08-30T12:47:49;22.30;99.90